createdAt,value
2019-01-19T00:01:13.612Z,-1.62
2019-01-19T00:02:42.331Z,-1.62
2019-01-19T00:04:16.305Z,-1.62
2019-01-19T00:06:06.314Z,-1.62
2019-01-19T00:07:40.612Z,-1.62
2019-01-19T00:08:40.812Z,-1.62
2019-01-19T00:09:44.625Z,-1.62
2019-01-19T00:11:11.731Z,-1.62
2019-01-19T00:12:58.843Z,-1.62
2019-01-19T00:13:56.905Z,-1.62
2019-01-19T00:14:47.469Z,-1.62
2019-01-19T00:15:49.768Z,-1.62
2019-01-19T00:17:45.563Z,-1.62
2019-01-19T00:19:27.353Z,-1.62
2019-01-19T00:21:04.437Z,-1.62
2019-01-19T00:22:47.054Z,-1.62
2019-01-19T00:24:08.495Z,-1.56
2019-01-19T00:25:37.627Z,-1.56
2019-01-19T00:27:04.133Z,-1.56
2019-01-19T00:28:13.073Z,-1.56
2019-01-19T00:29:12.231Z,-1.56
2019-01-19T00:30:20.498Z,-1.56
2019-01-19T00:31:10.757Z,-1.50
2019-01-19T00:32:44.204Z,-1.50
2019-01-19T00:34:33.935Z,-1.50
2019-01-19T00:35:48.688Z,-1.44
2019-01-19T00:36:36.145Z,-1.37
2019-01-19T00:37:31.165Z,-1.37
2019-01-19T00:38:45.970Z,-1.37
2019-01-19T00:40:23.006Z,-1.37
2019-01-19T00:42:01.844Z,-1.37
2019-01-19T00:43:35.332Z,-1.37
2019-01-19T00:44:45.095Z,-1.31
2019-01-19T00:46:27.977Z,-1.31
2019-01-19T00:47:22.445Z,-1.25
2019-01-19T00:48:38.674Z,-1.25
2019-01-19T00:49:33.530Z,-1.25
2019-01-19T00:50:47.323Z,-1.19
2019-01-19T00:51:52.077Z,-1.19
2019-01-19T00:53:02.501Z,-1.19
2019-01-19T00:53:51.694Z,-1.19
2019-01-19T00:54:51.060Z,-1.19
2019-01-19T00:56:34.765Z,-1.19
2019-01-19T00:58:30.494Z,-1.12
2019-01-19T00:59:11.369Z,-1.12
2019-01-19T00:59:52.530Z,-1.12
2019-01-19T01:00:47.945Z,-1.12
2019-01-19T01:02:40.823Z,-1.12
2019-01-19T01:03:42.704Z,-1.12
2019-01-19T01:04:55.153Z,-1.06
2019-01-19T01:05:38.544Z,-1.06
2019-01-19T01:07:14.298Z,-1.06
2019-01-19T01:08:45.272Z,-1.06
2019-01-19T01:10:03.639Z,-1.06
2019-01-19T01:10:58.049Z,-1.06
2019-01-19T01:12:45.159Z,-1.06
2019-01-19T01:14:15.505Z,-1.00
2019-01-19T01:15:54.153Z,-1.00
2019-01-19T01:17:00.368Z,-1.00
2019-01-19T01:18:36.580Z,-1.00
2019-01-19T01:20:10.250Z,-1.00
2019-01-19T01:21:39.380Z,-1.00
2019-01-19T01:22:58.556Z,-1.00
2019-01-19T01:24:06.504Z,-1.00
2019-01-19T01:25:11.620Z,-1.00
2019-01-19T01:27:11.118Z,-1.00
2019-01-19T01:28:24.948Z,-1.00
2019-01-19T01:30:06.122Z,-1.00
2019-01-19T01:31:15.617Z,-1.00
2019-01-19T01:32:15.106Z,-1.00
2019-01-19T01:33:27.998Z,-1.00
2019-01-19T01:35:20.866Z,-1.00
2019-01-19T01:37:07.850Z,-1.00
2019-01-19T01:38:16.359Z,-1.00
2019-01-19T01:39:53.008Z,-1.00
2019-01-19T01:41:17.180Z,-1.00
2019-01-19T01:43:18.018Z,-1.00
2019-01-19T01:44:45.450Z,-1.00
2019-01-19T01:46:07.729Z,-1.00
2019-01-19T01:47:33.399Z,-1.06
2019-01-19T01:49:24.654Z,-1.06
2019-01-19T01:50:32.129Z,-1.06
2019-01-19T01:51:59.386Z,-1.06
2019-01-19T01:53:15.528Z,-1.06
2019-01-19T01:54:41.868Z,-1.06
2019-01-19T01:55:34.989Z,-1.06
2019-01-19T01:56:14.312Z,-1.00
2019-01-19T01:56:47.508Z,-1.06
2019-01-19T01:57:36.875Z,-1.06
2019-01-19T01:58:51.579Z,-1.06
2019-01-19T02:00:16.477Z,-1.06
2019-01-19T02:01:53.246Z,-1.06
2019-01-19T02:02:51.433Z,-1.06
2019-01-19T02:04:30.163Z,-1.06
2019-01-19T02:06:00.337Z,-1.06
2019-01-19T02:07:24.073Z,-1.00
2019-01-19T02:08:49.682Z,-1.00
2019-01-19T02:10:16.773Z,-1.00
2019-01-19T02:11:57.024Z,-1.00
2019-01-19T02:13:16.176Z,-1.00
2019-01-19T02:14:22.997Z,-1.00
2019-01-19T02:15:57.451Z,-1.00
2019-01-19T02:17:31.174Z,-1.00
2019-01-19T02:18:50.123Z,-1.00
2019-01-19T02:20:07.604Z,-1.00
2019-01-19T02:21:41.880Z,-1.00
2019-01-19T02:23:19.609Z,-1.00
2019-01-19T02:24:28.505Z,-1.06
2019-01-19T02:26:13.531Z,-1.06
2019-01-19T02:27:23.762Z,-1.06
2019-01-19T02:28:34.670Z,-1.06
2019-01-19T02:30:09.653Z,-1.12
2019-01-19T02:31:49.841Z,-1.12
2019-01-19T02:33:16.012Z,-1.12
2019-01-19T02:34:46.160Z,-1.12
2019-01-19T02:36:38.479Z,-1.12
2019-01-19T02:37:54.569Z,-1.12
2019-01-19T02:39:20.162Z,-1.12
2019-01-19T02:40:33.281Z,-1.12
2019-01-19T02:41:58.039Z,-1.12
2019-01-19T02:43:37.457Z,-1.06
2019-01-19T02:44:54.689Z,-1.12
2019-01-19T02:46:26.750Z,-1.12
2019-01-19T02:47:39.095Z,-1.12
2019-01-19T02:49:00.883Z,-1.06
2019-01-19T02:50:37.692Z,-1.06
2019-01-19T02:52:10.309Z,-1.06
2019-01-19T02:53:57.085Z,-1.06
2019-01-19T02:55:21.581Z,-1.06
2019-01-19T02:56:31.943Z,-1.06
2019-01-19T02:58:04.279Z,-1.00
2019-01-19T02:59:11.868Z,-1.00
2019-01-19T03:00:53.211Z,-1.00
2019-01-19T03:02:41.567Z,-1.00
2019-01-19T03:03:46.174Z,-0.94
2019-01-19T03:05:06.082Z,-1.00
2019-01-19T03:05:56.281Z,-0.94
2019-01-19T03:07:34.243Z,-0.94
2019-01-19T03:08:59.959Z,-1.00
2019-01-19T03:10:48.720Z,-1.00
2019-01-19T03:12:05.409Z,-1.00
2019-01-19T03:13:47.922Z,-1.00
2019-01-19T03:14:37.374Z,-1.00
2019-01-19T03:16:03.861Z,-1.00
2019-01-19T03:17:33.807Z,-1.00
2019-01-19T03:18:43.251Z,-1.06
2019-01-19T03:20:17.232Z,-1.06
2019-01-19T03:21:44.772Z,-1.06
2019-01-19T03:23:04.438Z,-1.06
2019-01-19T03:25:06.730Z,-1.06
2019-01-19T03:26:35.960Z,-1.06
2019-01-19T03:27:57.676Z,-1.06
2019-01-19T03:29:35.316Z,-1.06
2019-01-19T03:30:58.657Z,-1.12
2019-01-19T03:33:06.782Z,-1.12
2019-01-19T03:34:22.278Z,-1.12
2019-01-19T03:35:54.362Z,-1.12
2019-01-19T03:37:35.207Z,-1.12
2019-01-19T03:38:55.714Z,-1.19
2019-01-19T03:40:28.313Z,-1.19
2019-01-19T03:41:49.178Z,-1.19
2019-01-19T03:43:25.944Z,-1.19
2019-01-19T03:44:51.604Z,-1.19
2019-01-19T03:46:18.455Z,-1.19
2019-01-19T03:47:47.088Z,-1.19
2019-01-19T03:49:25.894Z,-1.19
2019-01-19T03:51:05.350Z,-1.19
2019-01-19T03:51:53.134Z,-1.12
2019-01-19T03:53:24.670Z,-1.12
2019-01-19T03:54:32.539Z,-1.12
2019-01-19T03:56:00.308Z,-1.12
2019-01-19T03:57:09.956Z,-1.06
2019-01-19T03:58:25.564Z,-1.06
2019-01-19T03:59:32.738Z,-1.06
2019-01-19T04:00:36.248Z,-1.06
2019-01-19T04:02:17.934Z,-1.06
2019-01-19T04:03:54.630Z,-1.06
2019-01-19T04:05:23.072Z,-1.06
2019-01-19T04:06:48.262Z,-1.06
2019-01-19T04:08:06.560Z,-1.06
2019-01-19T04:09:56.155Z,-1.06
2019-01-19T04:11:30.609Z,-1.06
2019-01-19T04:13:07.288Z,-1.06
2019-01-19T04:14:51.210Z,-1.06
2019-01-19T04:16:20.621Z,-1.06
2019-01-19T04:17:58.287Z,-1.06
2019-01-19T04:19:01.370Z,-1.06
2019-01-19T04:20:13.491Z,-1.06
2019-01-19T04:21:16.983Z,-1.06
2019-01-19T04:22:41.997Z,-1.06
2019-01-19T04:23:15.081Z,-1.06
2019-01-19T04:23:56.803Z,-1.06
2019-01-19T04:25:02.217Z,-1.06
2019-01-19T04:25:51.309Z,-1.00
2019-01-19T04:26:36.750Z,-1.00
2019-01-19T04:27:10.561Z,-1.00
2019-01-19T04:27:43.729Z,-1.00
2019-01-19T04:28:18.892Z,-1.00
2019-01-19T04:28:52.980Z,-1.06
2019-01-19T04:29:26.074Z,-1.06
2019-01-19T04:29:59.187Z,-1.06
2019-01-19T04:30:32.286Z,-1.00
2019-01-19T04:31:05.465Z,-1.00
2019-01-19T04:31:38.605Z,-1.00
2019-01-19T04:32:11.823Z,-1.06
2019-01-19T04:32:45.174Z,-1.06
2019-01-19T04:33:19.790Z,-1.06
2019-01-19T04:33:52.959Z,-1.06
2019-01-19T04:34:27.735Z,-1.06
2019-01-19T04:35:00.768Z,-1.06
2019-01-19T04:35:33.827Z,-1.06
2019-01-19T04:36:08.004Z,-1.06
2019-01-19T04:36:41.175Z,-1.06
2019-01-19T04:37:14.242Z,-1.06
2019-01-19T04:37:47.295Z,-1.06
2019-01-19T04:38:20.341Z,-1.06
2019-01-19T04:38:53.490Z,-1.06
2019-01-19T04:39:26.441Z,-1.06
2019-01-19T04:39:59.555Z,-1.06
2019-01-19T04:40:32.682Z,-1.06
2019-01-19T04:41:05.640Z,-1.06
2019-01-19T04:41:39.243Z,-1.00
2019-01-19T04:42:12.825Z,-1.00
2019-01-19T04:42:46.218Z,-1.00
2019-01-19T04:43:19.161Z,-1.00
2019-01-19T04:43:52.240Z,-1.00
2019-01-19T04:44:25.331Z,-1.00
2019-01-19T04:44:58.163Z,-1.00
2019-01-19T04:45:31.235Z,-1.00
2019-01-19T04:46:04.390Z,-1.00
2019-01-19T04:46:37.479Z,-1.00
2019-01-19T04:47:10.567Z,-1.00
2019-01-19T04:47:44.761Z,-1.00
2019-01-19T04:48:20.297Z,-1.00
2019-01-19T04:48:53.481Z,-1.00
2019-01-19T04:49:26.535Z,-1.00
2019-01-19T04:49:59.535Z,-1.06
2019-01-19T04:50:34.236Z,-1.06
2019-01-19T04:51:07.291Z,-1.00
2019-01-19T04:51:40.399Z,-1.06
2019-01-19T04:52:13.402Z,-1.06
2019-01-19T04:52:46.509Z,-1.00
2019-01-19T04:53:19.677Z,-1.00
2019-01-19T04:53:52.746Z,-1.00
2019-01-19T04:54:25.716Z,-1.00
2019-01-19T04:54:58.919Z,-1.00
2019-01-19T04:55:32.191Z,-1.00
2019-01-19T04:56:05.337Z,-1.00
2019-01-19T04:56:38.394Z,-1.00
2019-01-19T04:57:11.561Z,-1.00
2019-01-19T04:57:44.734Z,-1.00
2019-01-19T04:58:17.864Z,-1.00
2019-01-19T04:58:52.511Z,-1.00
2019-01-19T04:59:25.749Z,-1.00
2019-01-19T04:59:58.831Z,-0.94
2019-01-19T05:00:32.021Z,-1.00
2019-01-19T05:01:05.084Z,-1.00
2019-01-19T05:01:38.207Z,-1.00
2019-01-19T05:02:11.359Z,-1.00
2019-01-19T05:02:44.583Z,-1.00
2019-01-19T05:03:17.667Z,-1.06
2019-01-19T05:03:50.653Z,-1.06
2019-01-19T05:04:24.741Z,-1.06
2019-01-19T05:04:57.877Z,-1.06
2019-01-19T05:05:30.887Z,-1.06
2019-01-19T05:06:11.745Z,-1.06
2019-01-19T05:06:39.037Z,-1.06
2019-01-19T05:07:13.232Z,-1.06
2019-01-19T05:07:46.377Z,-1.06
2019-01-19T05:08:19.507Z,-1.00
2019-01-19T05:08:52.589Z,-1.00
2019-01-19T05:09:25.728Z,-1.00
2019-01-19T05:09:58.887Z,-1.00
2019-01-19T05:10:32.447Z,-1.00
2019-01-19T05:11:05.621Z,-1.00
2019-01-19T05:11:38.658Z,-1.00
2019-01-19T05:12:11.731Z,-1.00
2019-01-19T05:12:45.217Z,-1.00
2019-01-19T05:13:19.369Z,-1.06
2019-01-19T05:13:52.438Z,-1.00
2019-01-19T05:14:25.457Z,-1.00
2019-01-19T05:14:58.431Z,-1.00
2019-01-19T05:15:31.673Z,-1.00
2019-01-19T05:16:04.839Z,-1.00
2019-01-19T05:16:37.925Z,-1.00
2019-01-19T05:17:10.977Z,-1.00
2019-01-19T05:17:44.721Z,-1.00
2019-01-19T05:18:18.040Z,-1.00
2019-01-19T05:18:52.257Z,-1.00
2019-01-19T05:19:26.207Z,-1.00
2019-01-19T05:19:59.204Z,-1.00
2019-01-19T05:20:32.377Z,-1.00
2019-01-19T05:21:05.660Z,-1.00
2019-01-19T05:21:38.707Z,-1.00
2019-01-19T05:22:11.881Z,-1.00
2019-01-19T05:22:44.959Z,-1.00
2019-01-19T05:23:18.163Z,-1.00
2019-01-19T05:23:51.200Z,-1.00
2019-01-19T05:24:24.369Z,-1.00
2019-01-19T05:24:57.446Z,-1.00
2019-01-19T05:25:30.384Z,-1.00
2019-01-19T05:26:03.525Z,-1.00
2019-01-19T05:26:36.584Z,-1.00
2019-01-19T05:27:09.640Z,-1.00
2019-01-19T05:27:42.799Z,-1.00
2019-01-19T05:28:16.824Z,-1.00
2019-01-19T05:28:50.001Z,-1.00
2019-01-19T05:29:23.064Z,-1.00
2019-01-19T05:29:56.025Z,-1.00
2019-01-19T05:30:29.227Z,-1.00
2019-01-19T05:31:02.273Z,-1.00
2019-01-19T05:31:35.257Z,-1.00
2019-01-19T05:32:08.490Z,-1.00
2019-01-19T05:32:41.639Z,-1.00
2019-01-19T05:33:14.739Z,-1.00
2019-01-19T05:33:47.767Z,-1.00
2019-01-19T05:34:20.854Z,-1.00
2019-01-19T05:34:54.191Z,-1.00
2019-01-19T05:35:28.735Z,-1.06
2019-01-19T05:36:01.778Z,-1.06
2019-01-19T05:36:38.426Z,-1.06
2019-01-19T05:37:09.803Z,-1.00
2019-01-19T05:37:43.063Z,-1.00
2019-01-19T05:38:16.172Z,-1.00
2019-01-19T05:38:49.239Z,-1.06
2019-01-19T05:39:22.475Z,-1.06
2019-01-19T05:39:55.530Z,-1.06
2019-01-19T05:40:28.709Z,-1.06
2019-01-19T05:41:01.580Z,-1.06
2019-01-19T05:41:34.623Z,-1.06
2019-01-19T05:42:07.817Z,-1.06
2019-01-19T05:42:41.063Z,-1.06
2019-01-19T05:43:14.176Z,-1.06
2019-01-19T05:43:47.239Z,-1.06
2019-01-19T05:44:20.295Z,-1.06
2019-01-19T05:44:53.339Z,-1.06
2019-01-19T05:45:26.512Z,-1.06
2019-01-19T05:45:59.599Z,-1.06
2019-01-19T05:46:34.332Z,-1.06
2019-01-19T05:47:07.378Z,-1.06
2019-01-19T05:47:40.756Z,-1.06
2019-01-19T05:48:13.656Z,-1.06
2019-01-19T05:48:46.711Z,-1.06
2019-01-19T05:49:19.707Z,-1.12
2019-01-19T05:49:52.910Z,-1.06
2019-01-19T05:50:26.011Z,-1.12
2019-01-19T05:50:59.044Z,-1.06
2019-01-19T05:51:33.766Z,-1.06
2019-01-19T05:52:06.725Z,-1.06
2019-01-19T05:52:39.777Z,-1.06
2019-01-19T05:53:12.751Z,-1.06
2019-01-19T05:53:45.892Z,-1.06
2019-01-19T05:54:18.941Z,-1.12
2019-01-19T05:54:51.928Z,-1.12
2019-01-19T05:55:24.982Z,-1.12
2019-01-19T05:55:58.015Z,-1.12
2019-01-19T05:56:31.056Z,-1.12
2019-01-19T05:57:04.142Z,-1.12
2019-01-19T05:57:37.354Z,-1.12
2019-01-19T05:58:10.496Z,-1.12
2019-01-19T05:58:43.667Z,-1.12
2019-01-19T05:59:16.790Z,-1.12
2019-01-19T05:59:49.931Z,-1.12
2019-01-19T06:00:34.127Z,-1.12
2019-01-19T06:01:07.243Z,-1.19
2019-01-19T06:01:40.414Z,-1.19
2019-01-19T06:02:13.457Z,-1.19
2019-01-19T06:02:46.572Z,-1.19
2019-01-19T06:03:19.612Z,-1.19
2019-01-19T06:03:52.714Z,-1.19
2019-01-19T06:04:25.642Z,-1.19
2019-01-19T06:04:58.762Z,-1.19
2019-01-19T06:05:31.932Z,-1.19
2019-01-19T06:06:05.239Z,-1.25
2019-01-19T06:06:46.374Z,-1.25
2019-01-19T06:07:13.202Z,-1.25
2019-01-19T06:07:46.274Z,-1.25
2019-01-19T06:08:19.293Z,-1.25
2019-01-19T06:08:52.340Z,-1.25
2019-01-19T06:09:25.338Z,-1.25
2019-01-19T06:09:58.382Z,-1.25
2019-01-19T06:10:31.426Z,-1.25
2019-01-19T06:11:04.882Z,-1.25
2019-01-19T06:11:37.984Z,-1.19
2019-01-19T06:12:11.043Z,-1.19
2019-01-19T06:12:44.192Z,-1.19
2019-01-19T06:13:17.261Z,-1.19
2019-01-19T06:13:50.268Z,-1.19
2019-01-19T06:14:23.340Z,-1.19
2019-01-19T06:14:56.246Z,-1.25
2019-01-19T06:15:29.307Z,-1.19
2019-01-19T06:16:02.307Z,-1.19
2019-01-19T06:16:36.176Z,-1.19
2019-01-19T06:17:09.195Z,-1.19
2019-01-19T06:17:42.346Z,-1.19
2019-01-19T06:18:15.462Z,-1.19
2019-01-19T06:18:48.682Z,-1.19
2019-01-19T06:19:22.001Z,-1.19
2019-01-19T06:19:55.077Z,-1.19
2019-01-19T06:20:28.196Z,-1.19
2019-01-19T06:21:01.461Z,-1.19
2019-01-19T06:21:39.600Z,-1.19
2019-01-19T06:22:12.764Z,-1.19
2019-01-19T06:22:45.766Z,-1.19
2019-01-19T06:23:18.946Z,-1.19
2019-01-19T06:23:52.024Z,-1.12
2019-01-19T06:24:24.976Z,-1.12
2019-01-19T06:24:58.088Z,-1.12
2019-01-19T06:25:31.315Z,-1.12
2019-01-19T06:26:04.720Z,-1.12
2019-01-19T06:26:37.808Z,-1.12
2019-01-19T06:27:10.707Z,-1.12
2019-01-19T06:27:43.912Z,-1.12
2019-01-19T06:28:16.926Z,-1.12
2019-01-19T06:28:49.979Z,-1.12
2019-01-19T06:29:23.092Z,-1.12
2019-01-19T06:29:56.062Z,-1.12
2019-01-19T06:30:28.971Z,-1.12
2019-01-19T06:31:03.015Z,-1.19
2019-01-19T06:31:36.160Z,-1.19
2019-01-19T06:32:09.206Z,-1.19
2019-01-19T06:32:46.603Z,-1.19
2019-01-19T06:33:19.783Z,-1.19
2019-01-19T06:33:53.004Z,-1.19
2019-01-19T06:34:26.229Z,-1.25
2019-01-19T06:34:59.448Z,-1.25
2019-01-19T06:35:32.714Z,-1.19
2019-01-19T06:36:05.761Z,-1.19
2019-01-19T06:36:38.834Z,-1.19
2019-01-19T06:37:12.005Z,-1.19
2019-01-19T06:37:45.678Z,-1.25
2019-01-19T06:38:18.845Z,-1.25
2019-01-19T06:38:51.880Z,-1.25
2019-01-19T06:39:25.038Z,-1.25
2019-01-19T06:39:58.042Z,-1.25
2019-01-19T06:40:31.115Z,-1.25
2019-01-19T06:41:04.225Z,-1.25
2019-01-19T06:41:37.311Z,-1.25
2019-01-19T06:42:10.492Z,-1.31
2019-01-19T06:42:43.678Z,-1.31
2019-01-19T06:43:16.794Z,-1.31
2019-01-19T06:43:49.847Z,-1.31
2019-01-19T06:44:23.026Z,-1.31
2019-01-19T06:44:55.968Z,-1.31
2019-01-19T06:45:28.988Z,-1.31
2019-01-19T06:46:03.311Z,-1.31
2019-01-19T06:46:36.323Z,-1.31
2019-01-19T06:47:09.484Z,-1.31
2019-01-19T06:47:42.651Z,-1.31
2019-01-19T06:48:15.751Z,-1.37
2019-01-19T06:48:48.910Z,-1.37
2019-01-19T06:49:21.899Z,-1.37
2019-01-19T06:49:55.072Z,-1.37
2019-01-19T06:50:28.272Z,-1.37
2019-01-19T06:51:01.594Z,-1.31
2019-01-19T06:51:34.540Z,-1.37
2019-01-19T06:52:07.623Z,-1.31
2019-01-19T06:52:40.799Z,-1.31
2019-01-19T06:53:13.661Z,-1.31
2019-01-19T06:53:47.536Z,-1.31
2019-01-19T06:54:21.625Z,-1.31
2019-01-19T06:54:54.722Z,-1.31
2019-01-19T06:55:33.429Z,-1.31
2019-01-19T06:56:06.570Z,-1.31
2019-01-19T06:56:39.655Z,-1.31
2019-01-19T06:57:12.759Z,-1.31
2019-01-19T06:57:45.812Z,-1.37
2019-01-19T06:58:18.870Z,-1.37
2019-01-19T06:58:51.918Z,-1.37
2019-01-19T06:59:25.035Z,-1.31
2019-01-19T06:59:58.090Z,-1.37
2019-01-19T07:00:32.050Z,-1.37
2019-01-19T07:01:05.232Z,-1.37
2019-01-19T07:01:38.429Z,-1.44
2019-01-19T07:02:11.492Z,-1.44
2019-01-19T07:02:44.847Z,-1.44
2019-01-19T07:03:17.900Z,-1.50
2019-01-19T07:03:50.929Z,-1.50
2019-01-19T07:04:23.933Z,-1.56
2019-01-19T07:04:56.898Z,-1.56
2019-01-19T07:05:29.973Z,-1.56
2019-01-19T07:06:03.062Z,-1.62
2019-01-19T07:06:36.134Z,-1.62
2019-01-19T07:07:09.289Z,-1.69
2019-01-19T07:07:42.510Z,-1.69
2019-01-19T07:08:17.001Z,-1.69
2019-01-19T07:08:50.208Z,-1.69
2019-01-19T07:09:23.343Z,-1.69
2019-01-19T07:09:56.439Z,-1.69
2019-01-19T07:10:29.637Z,-1.69
2019-01-19T07:11:02.727Z,-1.69
2019-01-19T07:11:35.953Z,-1.69
2019-01-19T07:12:09.084Z,-1.69
2019-01-19T07:12:42.249Z,-1.62
2019-01-19T07:13:15.402Z,-1.62
2019-01-19T07:13:48.411Z,-1.62
2019-01-19T07:14:21.599Z,-1.62
2019-01-19T07:14:54.549Z,-1.62
2019-01-19T07:15:27.709Z,-1.62
2019-01-19T07:16:02.534Z,-1.62
2019-01-19T07:16:35.714Z,-1.62
2019-01-19T07:17:08.897Z,-1.62
2019-01-19T07:17:42.076Z,-1.62
2019-01-19T07:18:15.141Z,-1.62
2019-01-19T07:18:48.281Z,-1.62
2019-01-19T07:19:21.427Z,-1.62
2019-01-19T07:19:54.498Z,-1.62
2019-01-19T07:20:30.869Z,-1.69
2019-01-19T07:21:04.247Z,-1.69
2019-01-19T07:21:37.499Z,-1.69
2019-01-19T07:22:10.481Z,-1.69
2019-01-19T07:22:43.711Z,-1.69
2019-01-19T07:23:18.426Z,-1.69
2019-01-19T07:23:51.530Z,-1.69
2019-01-19T07:24:24.594Z,-1.69
2019-01-19T07:24:57.560Z,-1.69
2019-01-19T07:25:30.405Z,-1.75
2019-01-19T07:26:04.417Z,-1.75
2019-01-19T07:26:37.385Z,-1.75
2019-01-19T07:27:10.667Z,-1.75
2019-01-19T07:27:43.693Z,-1.75
2019-01-19T07:28:16.719Z,-1.75
2019-01-19T07:28:49.771Z,-1.75
2019-01-19T07:29:22.997Z,-1.81
2019-01-19T07:29:56.081Z,-1.81
2019-01-19T07:30:29.237Z,-1.81
2019-01-19T07:31:02.282Z,-1.87
2019-01-19T07:31:35.371Z,-1.87
2019-01-19T07:32:08.427Z,-1.87
2019-01-19T07:32:41.680Z,-1.87
2019-01-19T07:33:14.755Z,-1.87
2019-01-19T07:33:47.776Z,-1.87
2019-01-19T07:34:20.830Z,-1.87
2019-01-19T07:34:53.930Z,-1.87
2019-01-19T07:35:27.031Z,-1.87
2019-01-19T07:36:00.177Z,-1.87
2019-01-19T07:36:35.665Z,-1.87
2019-01-19T07:37:09.991Z,-1.94
2019-01-19T07:37:43.425Z,-1.94
2019-01-19T07:38:16.561Z,-1.94
2019-01-19T07:38:49.625Z,-1.94
2019-01-19T07:39:22.795Z,-1.94
2019-01-19T07:39:55.861Z,-1.94
2019-01-19T07:40:29.064Z,-1.94
2019-01-19T07:41:03.236Z,-1.94
2019-01-19T07:41:36.317Z,-1.94
2019-01-19T07:42:09.481Z,-1.94
2019-01-19T07:42:43.346Z,-1.94
2019-01-19T07:43:16.501Z,-1.94
2019-01-19T07:43:49.625Z,-1.94
2019-01-19T07:44:22.589Z,-1.94
2019-01-19T07:44:55.609Z,-1.94
2019-01-19T07:45:28.739Z,-1.94
2019-01-19T07:46:02.359Z,-1.94
2019-01-19T07:46:35.717Z,-1.94
2019-01-19T07:47:08.920Z,-2.00
2019-01-19T07:47:42.999Z,-2.00
2019-01-19T07:48:16.213Z,-2.00
2019-01-19T07:48:49.389Z,-2.06
2019-01-19T07:49:22.499Z,-2.06
2019-01-19T07:49:55.633Z,-2.06
2019-01-19T07:50:28.653Z,-2.06
2019-01-19T07:51:01.757Z,-2.06
2019-01-19T07:51:34.778Z,-2.06
2019-01-19T07:52:07.802Z,-2.06
2019-01-19T07:52:40.915Z,-2.06
2019-01-19T07:53:14.281Z,-2.06
2019-01-19T07:53:47.275Z,-2.06
2019-01-19T07:54:20.207Z,-2.06
2019-01-19T07:54:53.226Z,-2.06
2019-01-19T07:55:26.339Z,-2.06
2019-01-19T07:55:59.459Z,-2.12
2019-01-19T07:56:32.503Z,-2.12
2019-01-19T07:57:05.503Z,-2.12
2019-01-19T07:57:38.649Z,-2.19
2019-01-19T07:58:11.707Z,-2.19
2019-01-19T07:58:44.723Z,-2.19
2019-01-19T07:59:17.711Z,-2.19
2019-01-19T07:59:50.787Z,-2.19
2019-01-19T08:00:27.886Z,-2.19
2019-01-19T08:01:01.011Z,-2.19
2019-01-19T08:01:34.001Z,-2.19
2019-01-19T08:02:07.242Z,-2.19
2019-01-19T08:02:40.377Z,-2.19
2019-01-19T08:03:14.733Z,-2.19
2019-01-19T08:03:47.729Z,-2.19
2019-01-19T08:04:20.675Z,-2.19
2019-01-19T08:04:53.701Z,-2.19
2019-01-19T08:05:26.856Z,-2.19
2019-01-19T08:05:59.898Z,-2.25
2019-01-19T08:06:32.985Z,-2.19
2019-01-19T08:07:06.099Z,-2.19
2019-01-19T08:07:39.171Z,-2.19
2019-01-19T08:08:12.171Z,-2.19
2019-01-19T08:08:45.095Z,-2.19
2019-01-19T08:09:18.205Z,-2.19
2019-01-19T08:09:52.307Z,-2.19
2019-01-19T08:10:25.306Z,-2.12
2019-01-19T08:10:58.367Z,-2.19
2019-01-19T08:11:31.381Z,-2.19
2019-01-19T08:12:04.665Z,-2.19
2019-01-19T08:12:37.779Z,-2.19
2019-01-19T08:13:11.001Z,-2.19
2019-01-19T08:13:44.007Z,-2.12
2019-01-19T08:14:17.121Z,-2.12
2019-01-19T08:14:50.139Z,-2.12
2019-01-19T08:15:25.059Z,-2.12
2019-01-19T08:15:58.072Z,-2.12
2019-01-19T08:16:31.475Z,-2.12
2019-01-19T08:17:04.487Z,-2.12
2019-01-19T08:17:37.547Z,-2.12
2019-01-19T08:18:16.569Z,-2.12
2019-01-19T08:18:49.636Z,-2.12
2019-01-19T08:19:22.655Z,-2.12
2019-01-19T08:19:55.573Z,-2.12
2019-01-19T08:20:28.665Z,-2.12
2019-01-19T08:21:04.345Z,-2.12
2019-01-19T08:21:37.463Z,-2.12
2019-01-19T08:22:10.577Z,-2.12
2019-01-19T08:22:43.611Z,-2.12
2019-01-19T08:23:18.034Z,-2.12
2019-01-19T08:23:50.951Z,-2.12
2019-01-19T08:24:24.041Z,-2.12
2019-01-19T08:24:57.041Z,-2.12
2019-01-19T08:25:29.953Z,-2.06
2019-01-19T08:26:03.081Z,-2.06
2019-01-19T08:26:36.110Z,-2.06
2019-01-19T08:27:09.195Z,-2.06
2019-01-19T08:27:42.283Z,-2.06
2019-01-19T08:28:15.387Z,-2.06
2019-01-19T08:28:48.403Z,-2.06
2019-01-19T08:29:21.390Z,-2.06
2019-01-19T08:29:54.559Z,-2.06
2019-01-19T08:30:29.267Z,-2.06
2019-01-19T08:31:02.277Z,-2.06
2019-01-19T08:31:35.282Z,-2.06
2019-01-19T08:32:08.861Z,-2.00
2019-01-19T08:32:42.120Z,-2.00
2019-01-19T08:33:15.216Z,-2.00
2019-01-19T08:33:48.243Z,-2.00
2019-01-19T08:34:21.311Z,-2.00
2019-01-19T08:34:54.298Z,-2.00
2019-01-19T08:35:27.927Z,-2.00
2019-01-19T08:36:01.065Z,-2.00
2019-01-19T08:36:34.023Z,-1.94
2019-01-19T08:37:07.161Z,-1.94
2019-01-19T08:37:40.222Z,-1.94
2019-01-19T08:38:13.163Z,-1.94
2019-01-19T08:38:46.354Z,-1.94
2019-01-19T08:39:19.582Z,-1.94
2019-01-19T08:39:52.726Z,-1.94
2019-01-19T08:40:29.537Z,-1.94
2019-01-19T08:41:02.667Z,-1.94
2019-01-19T08:41:35.762Z,-1.94
2019-01-19T08:42:08.923Z,-1.94
2019-01-19T08:42:42.031Z,-1.94
2019-01-19T08:43:37.892Z,-1.94
2019-01-19T08:44:10.997Z,-1.87
2019-01-19T08:44:44.194Z,-1.87
2019-01-19T08:45:19.712Z,-1.87
2019-01-19T08:45:52.910Z,-1.87
2019-01-19T08:46:25.986Z,-1.87
2019-01-19T08:46:59.034Z,-1.87
2019-01-19T08:47:32.166Z,-1.87
2019-01-19T08:48:05.432Z,-1.81
2019-01-19T08:48:38.647Z,-1.81
2019-01-19T08:49:11.691Z,-1.81
2019-01-19T08:49:44.880Z,-1.81
2019-01-19T08:50:18.203Z,-1.81
2019-01-19T08:50:51.220Z,-1.81
2019-01-19T08:51:24.264Z,-1.75
2019-01-19T08:51:57.271Z,-1.75
2019-01-19T08:52:30.384Z,-1.75
2019-01-19T08:53:03.512Z,-1.75
2019-01-19T08:53:36.690Z,-1.69
2019-01-19T08:54:09.816Z,-1.69
2019-01-19T08:54:42.882Z,-1.69
2019-01-19T08:55:15.988Z,-1.69
2019-01-19T08:55:49.190Z,-1.62
2019-01-19T08:56:22.204Z,-1.62
2019-01-19T08:56:56.786Z,-1.62
2019-01-19T08:57:29.748Z,-1.62
2019-01-19T08:58:03.249Z,-1.62
2019-01-19T08:58:36.282Z,-1.56
2019-01-19T08:59:09.416Z,-1.56
2019-01-19T08:59:42.364Z,-1.56
2019-01-19T09:00:15.568Z,-1.56
2019-01-19T09:00:48.564Z,-1.56
2019-01-19T09:01:21.630Z,-1.56
2019-01-19T09:01:54.656Z,-1.56
2019-01-19T09:02:27.903Z,-1.50
2019-01-19T09:03:01.049Z,-1.50
2019-01-19T09:03:34.136Z,-1.50
2019-01-19T09:04:07.276Z,-1.50
2019-01-19T09:04:40.416Z,-1.44
2019-01-19T09:05:13.536Z,-1.44
2019-01-19T09:05:46.588Z,-1.44
2019-01-19T09:06:19.605Z,-1.44
2019-01-19T09:06:52.688Z,-1.44
2019-01-19T09:07:33.309Z,-1.44
2019-01-19T09:08:00.760Z,-1.44
2019-01-19T09:08:33.886Z,-1.44
2019-01-19T09:09:07.022Z,-1.37
2019-01-19T09:09:40.102Z,-1.37
2019-01-19T09:10:13.666Z,-1.37
2019-01-19T09:10:46.957Z,-1.37
2019-01-19T09:11:20.086Z,-1.37
2019-01-19T09:11:53.118Z,-1.37
2019-01-19T09:12:26.284Z,-1.37
2019-01-19T09:12:59.332Z,-1.37
2019-01-19T09:13:32.472Z,-1.37
2019-01-19T09:14:05.573Z,-1.37
2019-01-19T09:14:38.664Z,-1.37
2019-01-19T09:15:13.388Z,-1.37
2019-01-19T09:15:46.986Z,-1.37
2019-01-19T09:16:21.584Z,-1.37
2019-01-19T09:16:54.662Z,-1.31
2019-01-19T09:17:27.660Z,-1.31
2019-01-19T09:18:00.842Z,-1.31
2019-01-19T09:18:34.426Z,-1.31
2019-01-19T09:19:07.528Z,-1.31
2019-01-19T09:19:40.547Z,-1.31
2019-01-19T09:20:14.440Z,-1.31
2019-01-19T09:20:47.539Z,-1.31
2019-01-19T09:21:20.610Z,-1.31
2019-01-19T09:21:53.688Z,-1.31
2019-01-19T09:22:26.758Z,-1.31
2019-01-19T09:23:08.806Z,-1.31
2019-01-19T09:24:01.605Z,-1.31
2019-01-19T09:24:34.714Z,-1.31
2019-01-19T09:25:10.690Z,-1.25
2019-01-19T09:25:43.794Z,-1.25
2019-01-19T09:26:16.832Z,-1.25
2019-01-19T09:26:49.950Z,-1.25
2019-01-19T09:27:23.096Z,-1.25
2019-01-19T09:27:56.226Z,-1.25
2019-01-19T09:28:29.367Z,-1.19
2019-01-19T09:29:02.598Z,-1.19
2019-01-19T09:29:35.628Z,-1.19
2019-01-19T09:30:14.626Z,-1.12
2019-01-19T09:30:47.826Z,-1.12
2019-01-19T09:31:20.730Z,-1.12
2019-01-19T09:31:53.815Z,-1.12
2019-01-19T09:32:27.428Z,-1.12
2019-01-19T09:33:00.740Z,-1.06
2019-01-19T09:33:35.087Z,-1.06
2019-01-19T09:34:08.206Z,-1.06
2019-01-19T09:34:41.216Z,-1.06
2019-01-19T09:35:15.426Z,-1.06
2019-01-19T09:35:48.534Z,-1.06
2019-01-19T09:36:21.615Z,-1.00
2019-01-19T09:36:54.718Z,-1.00
2019-01-19T09:37:27.933Z,-1.00
2019-01-19T09:38:00.932Z,-1.00
2019-01-19T09:38:35.370Z,-1.00
2019-01-19T09:39:11.590Z,-1.00
2019-01-19T09:39:44.791Z,-1.00
2019-01-19T09:40:18.857Z,-1.00
2019-01-19T09:40:51.937Z,-1.00
2019-01-19T09:41:25.936Z,-1.00
2019-01-19T09:41:59.170Z,-1.00
2019-01-19T09:42:32.229Z,-0.94
2019-01-19T09:43:05.422Z,-0.94
2019-01-19T09:43:38.391Z,-0.94
2019-01-19T09:44:11.453Z,-0.88
2019-01-19T09:44:44.527Z,-0.88
2019-01-19T09:45:18.170Z,-0.88
2019-01-19T09:45:51.304Z,-0.88
2019-01-19T09:46:26.718Z,-0.88
2019-01-19T09:46:59.838Z,-0.81
2019-01-19T09:47:34.620Z,-0.81
2019-01-19T09:48:07.882Z,-0.81
2019-01-19T09:48:41.042Z,-0.75